Time;durP1;ratioP1;P1;durP2;ratioP2;P2;SDS_P1;SDS_P2;PMS_P1;PMS_P2;Temp;Humidity;BMP_temperature;BMP_pressure;BME280_temperature;BME280_humidity;BME280_pressure;Samples;Min_cycle;Max_cycle;Signal;HPM_P1;HPM_P2
2021/04/02 00:01:00;;;;;;;5.47;2.50;;;13.70;99.90;;;;;;1786921;80;21141;-75
2021/04/02 00:03:35;;;;;;;5.30;2.10;;;13.70;99.90;;;;;;1786898;80;21267;-75
2021/04/02 00:06:06;;;;;;;5.35;2.30;;;13.80;99.90;;;;;;1787325;80;21161;-75
2021/04/02 00:08:34;;;;;;;4.28;2.30;;;13.70;99.90;;;;;;1786992;80;21525;-75
2021/04/02 00:11:06;;;;;;;5.78;2.50;;;13.60;99.90;;;;;;1786940;80;21148;-75
2021/04/02 00:13:43;;;;;;;5.50;2.22;;;13.50;99.90;;;;;;1787235;80;21137;-75
2021/04/02 00:16:14;;;;;;;;;;;13.50;99.90;;;;;;1789767;80;21149;-75
2021/04/02 00:18:42;;;;;;;4.92;2.60;;;13.50;99.90;;;;;;1786932;80;20421;-75
2021/04/02 00:21:12;;;;;;;4.00;2.30;;;13.40;99.90;;;;;;1786987;80;21556;-75
2021/04/02 00:23:41;;;;;;;4.75;2.50;;;13.50;99.90;;;;;;1787053;80;21090;-75
2021/04/02 00:26:16;;;;;;;7.12;2.67;;;13.50;99.90;;;;;;1786903;80;21165;-76
2021/04/02 00:28:46;;;;;;;6.28;2.65;;;13.50;99.90;;;;;;1787140;80;21137;-76
2021/04/02 00:31:14;;;;;;;5.53;2.20;;;13.40;99.90;;;;;;1787216;80;21149;-75
2021/04/02 00:33:42;;;;;;;4.75;2.17;;;13.50;99.90;;;;;;1786917;80;21173;-76
2021/04/02 00:36:09;;;;;;;4.15;2.22;;;13.40;99.90;;;;;;1786914;80;21168;-75
2021/04/02 00:38:37;;;;;;;5.45;2.50;;;13.40;99.90;;;;;;1787622;80;21275;-75
2021/04/02 00:41:10;;;;;;;6.00;2.55;;;13.50;99.90;;;;;;1786928;80;21152;-76
2021/04/02 00:43:42;;;;;;;6.30;2.00;;;13.50;99.90;;;;;;1787103;80;21165;-76
2021/04/02 00:46:11;;;;;;;6.35;2.10;;;13.60;99.90;;;;;;1787130;80;21126;-76
2021/04/02 00:48:42;;;;;;;4.62;2.30;;;13.60;99.90;;;;;;1787267;80;21144;-75
2021/04/02 00:51:15;;;;;;;6.85;2.30;;;13.70;99.90;;;;;;1786927;80;21133;-75
2021/04/02 00:53:45;;;;;;;4.92;2.40;;;13.70;99.90;;;;;;1785654;80;21114;-75
2021/04/02 00:56:15;;;;;;;5.60;2.30;;;13.70;99.90;;;;;;1787299;80;21169;-75
2021/04/02 00:58:44;;;;;;;3.85;2.15;;;13.70;99.90;;;;;;1786994;80;21144;-75
2021/04/02 01:01:14;;;;;;;5.35;2.40;;;13.60;99.90;;;;;;1786996;80;21168;-75
2021/04/02 01:03:45;;;;;;;4.62;2.50;;;13.60;99.90;;;;;;1787045;80;21134;-75
2021/04/02 01:06:19;;;;;;;3.72;2.15;;;13.50;99.90;;;;;;1787100;80;21137;-75
2021/04/02 01:08:49;;;;;;;4.05;2.47;;;13.50;99.90;;;;;;1786940;80;21133;-74
2021/04/02 01:11:21;;;;;;;4.58;2.25;;;13.60;99.90;;;;;;1786953;80;21623;-74
2021/04/02 01:13:57;;;;;;;6.40;2.55;;;13.60;99.90;;;;;;1787035;80;21133;-75
2021/04/02 01:16:34;;;;;;;6.20;2.75;;;13.70;99.90;;;;;;1787152;80;21154;-74
2021/04/02 01:19:13;;;;;;;5.65;2.70;;;13.70;99.90;;;;;;1787275;80;21133;-75
2021/04/02 01:21:49;;;;;;;7.95;2.70;;;13.80;99.90;;;;;;1783977;80;21583;-75
2021/04/02 01:24:36;;;;;;;4.97;3.00;;;13.80;99.90;;;;;;1787103;80;21145;-75
2021/04/02 01:27:21;;;;;;;4.20;3.00;;;13.80;99.90;;;;;;1788225;80;21559;-74
2021/04/02 01:29:57;;;;;;;4.30;2.75;;;13.80;99.90;;;;;;1792655;79;21272;-75
2021/04/02 01:32:40;;;;;;;5.20;2.75;;;13.80;99.90;;;;;;1792530;79;21129;-75
2021/04/02 01:35:27;;;;;;;4.60;2.37;;;13.60;99.90;;;;;;1792360;79;21694;-75
2021/04/02 01:38:07;;;;;;;5.75;2.58;;;13.60;99.90;;;;;;1792730;79;21086;-76
2021/04/02 01:40:40;;;;;;;4.33;2.72;;;13.50;99.90;;;;;;1791869;80;21559;-76
2021/04/02 01:43:22;;;;;;;6.08;2.75;;;13.50;99.90;;;;;;1792415;79;21701;-77
2021/04/02 01:45:52;;;;;;;5.70;3.25;;;13.50;99.90;;;;;;1792361;80;21252;-76
2021/04/02 01:48:23;;;;;;;5.87;2.80;;;13.50;99.90;;;;;;1792312;79;21268;-76
2021/04/02 01:50:53;;;;;;;5.03;2.67;;;13.50;99.90;;;;;;1772521;80;21540;-76
2021/04/02 01:53:26;;;;;;;5.08;2.80;;;13.60;99.90;;;;;;1792585;79;21125;-76
2021/04/02 01:55:56;;;;;;;6.20;2.83;;;13.60;99.90;;;;;;1772510;80;21114;-78
2021/04/02 01:58:26;;;;;;;4.20;2.30;;;13.60;99.90;;;;;;1772400;80;21185;-77
2021/04/02 02:00:58;;;;;;;3.85;2.02;;;13.70;99.90;;;;;;1792855;79;21145;-77
2021/04/02 02:03:30;;;;;;;4.58;2.60;;;13.70;99.90;;;;;;1791834;80;21157;-77
2021/04/02 02:06:03;;;;;;;4.55;2.50;;;13.80;99.90;;;;;;1792255;80;21152;-76
2021/04/02 02:08:37;;;;;;;3.57;2.47;;;13.80;99.90;;;;;;1792022;80;21141;-77
2021/04/02 02:11:12;;;;;;;4.75;2.72;;;13.80;99.90;;;;;;1772535;80;21604;-77
2021/04/02 02:13:42;;;;;;;4.90;2.98;;;13.70;99.90;;;;;;1792409;79;21284;-76
2021/04/02 02:16:13;;;;;;;6.17;2.92;;;13.70;99.90;;;;;;1791581;80;21730;-76
2021/04/02 02:18:44;;;;;;;5.30;3.08;;;13.70;99.90;;;;;;1792761;80;21129;-77
2021/04/02 02:21:14;;;;;;;4.87;3.00;;;13.60;99.90;;;;;;1792430;80;21141;-77
2021/04/02 02:23:44;;;;;;;4.08;2.52;;;13.50;99.90;;;;;;1792518;79;21141;-77
2021/04/02 02:26:14;;;;;;;5.75;2.80;;;13.40;99.90;;;;;;1792794;80;21141;-77
2021/04/02 02:28:44;;;;;;;7.08;2.92;;;13.30;99.90;;;;;;1792912;79;21129;-77
2021/04/02 02:31:13;;;;;;;4.70;2.90;;;13.30;99.90;;;;;;1773007;80;21157;-76
2021/04/02 02:33:42;;;;;;;6.85;2.72;;;13.30;99.90;;;;;;1792790;80;21156;-76
2021/04/02 02:36:18;;;;;;;3.67;2.17;;;13.30;99.90;;;;;;1791684;80;21157;-77
2021/04/02 02:38:47;;;;;;;5.15;1.92;;;13.20;99.90;;;;;;1792298;79;21149;-76
2021/04/02 02:41:16;;;;;;;5.53;2.02;;;13.20;99.90;;;;;;1792999;80;21155;-75
2021/04/02 02:43:47;;;;;;;3.47;1.87;;;13.10;99.90;;;;;;1792500;80;21599;-74
2021/04/02 02:46:16;;;;;;;4.47;1.85;;;13.20;99.90;;;;;;1772438;80;21556;-74
2021/04/02 02:48:47;;;;;;;4.05;2.10;;;13.10;99.90;;;;;;1792580;79;21271;-74
2021/04/02 02:51:17;;;;;;;4.33;2.35;;;13.30;99.90;;;;;;1792308;79;21247;-76
2021/04/02 02:53:48;;;;;;;4.47;2.37;;;13.40;99.90;;;;;;1792561;79;21675;-77
2021/04/02 02:56:20;;;;;;;3.55;2.25;;;13.30;99.90;;;;;;1792474;80;21638;-77
2021/04/02 02:58:50;;;;;;;3.70;2.00;;;13.40;99.90;;;;;;1772474;80;21177;-77
2021/04/02 03:01:19;;;;;;;3.87;2.20;;;13.40;99.90;;;;;;1792242;79;21303;-76
2021/04/02 03:03:49;;;;;;;4.45;2.55;;;13.50;99.90;;;;;;1792757;79;21154;-77
2021/04/02 03:06:18;;;;;;;5.20;2.50;;;13.40;99.90;;;;;;1792374;79;21699;-77
2021/04/02 03:08:49;;;;;;;4.53;2.87;;;13.40;99.90;;;;;;1792581;80;21165;-76
2021/04/02 03:11:22;;;;;;;5.75;2.60;;;13.50;99.90;;;;;;1792292;80;21272;-77
2021/04/02 03:13:54;;;;;;;6.53;2.85;;;13.40;99.90;;;;;;1792146;80;21283;-77
2021/04/02 03:16:26;;;;;;;5.25;2.75;;;13.40;99.90;;;;;;1792247;79;21295;-77
2021/04/02 03:18:58;;;;;;;5.90;3.42;;;13.40;99.90;;;;;;1792288;79;21694;-76
2021/04/02 03:21:28;;;;;;;5.65;3.55;;;13.40;99.90;;;;;;1772450;80;21137;-75
2021/04/02 03:23:59;;;;;;;7.58;3.85;;;13.40;99.90;;;;;;1792855;79;21153;-74
2021/04/02 03:26:28;;;;;;;9.35;4.60;;;13.50;99.90;;;;;;1792356;79;21718;-77
2021/04/02 03:29:00;;;;;;;8.98;5.30;;;13.50;99.90;;;;;;1792519;79;21157;-77
2021/04/02 03:31:30;;;;;;;10.03;6.30;;;13.60;99.90;;;;;;1792285;79;21276;-77
2021/04/02 03:34:00;;;;;;;11.85;6.08;;;13.60;99.90;;;;;;1792842;80;21149;-77
2021/04/02 03:36:33;;;;;;;8.05;5.17;;;13.50;99.90;;;;;;1792326;79;21264;-77
2021/04/02 03:39:08;;;;;;;9.88;5.28;;;13.40;99.90;;;;;;1791916;80;21158;-76
2021/04/02 03:41:40;;;;;;;10.65;6.60;;;13.40;99.90;;;;;;1792256;79;21267;-76
2021/04/02 03:44:13;;;;;;;12.23;6.15;;;13.50;99.90;;;;;;1792421;79;21134;-76
2021/04/02 03:46:44;;;;;;;11.80;7.00;;;13.50;99.90;;;;;;1792264;79;21291;-75
2021/04/02 03:49:17;;;;;;;10.95;6.25;;;13.60;99.90;;;;;;1792366;80;21691;-75
2021/04/02 03:51:50;;;;;;;11.63;6.87;;;13.60;99.90;;;;;;1792528;80;21134;-76
2021/04/02 03:54:18;;;;;;;11.75;7.42;;;13.60;99.90;;;;;;1772703;80;21129;-75
2021/04/02 03:56:52;;;;;;;11.28;7.65;;;13.70;99.90;;;;;;1792189;80;21287;-76
2021/04/02 03:59:29;;;;;;;14.13;8.48;;;13.60;99.90;;;;;;1795719;80;21153;-75
2021/04/02 04:01:58;;;;;;;14.18;8.75;;;13.50;99.90;;;;;;1796282;79;21148;-75
2021/04/02 04:04:31;;;;;;;12.35;7.78;;;13.50;99.90;;;;;;1796542;79;21157;-75
2021/04/02 04:07:04;;;;;;;13.03;8.38;;;13.50;99.90;;;;;;1795953;79;21102;-76
2021/04/02 04:09:36;;;;;;;16.65;9.08;;;13.60;99.90;;;;;;1796612;79;21271;-76
2021/04/02 04:12:11;;;;;;;17.10;7.17;;;13.60;99.90;;;;;;1795816;79;21152;-76
2021/04/02 04:14:44;;;;;;;14.58;7.37;;;13.50;99.90;;;;;;1805267;78;21121;-77
2021/04/02 04:17:16;;;;;;;13.53;7.40;;;13.40;99.90;;;;;;1828645;78;21152;-78
2021/04/02 04:19:49;;;;;;;13.38;7.85;;;13.30;99.90;;;;;;1828821;78;21133;-76
2021/04/02 04:22:24;;;;;;;10.32;6.55;;;13.30;99.90;;;;;;1828899;78;21153;-75
2021/04/02 04:24:55;;;;;;;9.00;6.00;;;13.10;99.90;;;;;;1828563;78;21251;-76
2021/04/02 04:27:27;;;;;;;8.08;5.40;;;13.00;99.90;;;;;;1828553;78;21121;-76
2021/04/02 04:29:56;;;;;;;7.22;4.95;;;13.00;99.90;;;;;;1828714;78;21127;-77
2021/04/02 04:32:25;;;;;;;6.97;5.10;;;13.20;99.90;;;;;;1828763;78;21149;-74
2021/04/02 04:34:53;;;;;;;7.35;5.00;;;13.10;99.90;;;;;;1828700;78;21176;-75
2021/04/02 04:37:24;;;;;;;8.88;5.78;;;13.10;99.90;;;;;;1828875;78;21125;-74
2021/04/02 04:39:55;;;;;;;8.58;5.53;;;13.20;99.90;;;;;;1828591;78;21591;-75
2021/04/02 04:42:25;;;;;;;10.45;6.50;;;13.20;99.90;;;;;;1828656;78;21140;-76
2021/04/02 04:44:56;;;;;;;12.35;7.03;;;13.30;99.90;;;;;;1829158;78;21512;-76
2021/04/02 04:47:25;;;;;;;13.45;7.20;;;13.40;99.90;;;;;;1828812;78;21097;-76
2021/04/02 04:49:52;;;;;;;12.50;7.15;;;13.40;99.90;;;;;;1828705;78;21137;-75
2021/04/02 04:52:22;;;;;;;10.85;7.40;;;13.60;99.90;;;;;;1828624;78;21714;-75
2021/04/02 04:54:53;;;;;;;11.60;7.53;;;13.60;99.90;;;;;;1828507;78;21295;-74
2021/04/02 04:57:24;;;;;;;14.83;7.22;;;13.60;99.90;;;;;;1829100;78;21218;-73
2021/04/02 04:59:52;;;;;;;12.18;6.72;;;13.60;99.90;;;;;;1828626;78;21244;-74
2021/04/02 05:02:22;;;;;;;10.25;7.03;;;13.50;99.90;;;;;;1828515;78;21282;-74
2021/04/02 05:04:51;;;;;;;10.65;6.85;;;13.40;99.90;;;;;;1828577;78;21093;-75
2021/04/02 05:07:22;;;;;;;10.80;7.12;;;13.40;99.90;;;;;;1828994;78;21149;-76
2021/04/02 05:09:54;;;;;;;10.70;7.08;;;13.40;99.90;;;;;;1828600;78;21137;-77
2021/04/02 05:12:23;;;;;;;11.75;7.80;;;13.40;99.90;;;;;;1828776;78;21137;-76
2021/04/02 05:14:52;;;;;;;13.30;7.22;;;13.30;99.90;;;;;;1828570;78;21153;-77
2021/04/02 05:17:21;;;;;;;13.48;8.38;;;13.30;99.90;;;;;;1805606;78;21212;-77
2021/04/02 05:19:51;;;;;;;11.70;7.20;;;13.20;99.90;;;;;;1800958;78;21263;-76
2021/04/02 05:22:19;;;;;;;9.63;6.70;;;13.20;99.90;;;;;;1795953;79;21160;-74
2021/04/02 05:24:48;;;;;;;11.33;7.08;;;13.10;99.90;;;;;;1800162;78;21124;-75
2021/04/02 05:27:16;;;;;;;11.55;6.92;;;13.10;99.90;;;;;;1796244;80;21160;-76
2021/04/02 05:29:44;;;;;;;9.80;6.65;;;13.20;99.90;;;;;;1796192;78;21130;-74
2021/04/02 05:32:11;;;;;;;11.03;7.12;;;13.30;99.90;;;;;;1800865;78;21124;-73
2021/04/02 05:34:39;;;;;;;13.05;7.35;;;13.40;99.90;;;;;;1801796;78;21570;-74
2021/04/02 05:37:06;;;;;;;11.18;7.33;;;13.40;99.90;;;;;;1800450;78;21117;-74
2021/04/02 05:39:36;;;;;;;13.65;8.13;;;13.50;99.90;;;;;;1800489;78;21186;-74
2021/04/02 05:42:09;;;;;;;15.03;8.55;;;13.50;99.90;;;;;;1820002;78;21164;-75
2021/04/02 05:44:38;;;;;;;15.03;8.90;;;13.60;99.90;;;;;;1828850;78;21570;-74
2021/04/02 05:47:09;;;;;;;13.72;8.83;;;13.60;99.90;;;;;;1811425;78;21152;-74
2021/04/02 05:49:39;;;;;;;14.98;8.75;;;13.60;99.90;;;;;;1795997;80;21121;-77
2021/04/02 05:52:07;;;;;;;12.47;8.85;;;13.70;99.90;;;;;;1800802;78;21561;-74
2021/04/02 05:54:39;;;;;;;13.08;8.13;;;13.80;99.90;;;;;;1798837;78;21156;-76
2021/04/02 05:57:09;;;;;;;11.12;7.55;;;13.90;99.90;;;;;;1801955;78;21106;-76
2021/04/02 05:59:43;;;;;;;13.20;9.48;;;13.90;99.90;;;;;;1799916;78;21125;-75
2021/04/02 06:02:14;;;;;;;10.90;6.75;;;13.90;99.90;;;;;;1795404;80;21124;-76
2021/04/02 06:04:44;;;;;;;10.95;7.45;;;13.80;99.90;;;;;;1796051;80;21145;-74
2021/04/02 06:07:17;;;;;;;12.78;7.85;;;13.90;99.90;;;;;;1800266;78;21141;-74
2021/04/02 06:09:45;;;;;;;13.13;8.33;;;14.00;99.90;;;;;;1800169;78;21113;-75
2021/04/02 06:12:13;;;;;;;14.78;9.05;;;14.00;99.90;;;;;;1804563;78;21148;-73
2021/04/02 06:14:43;;;;;;;17.12;11.75;;;13.90;99.90;;;;;;1806416;78;21156;-72
2021/04/02 06:17:14;;;;;;;16.27;9.45;;;13.90;99.90;;;;;;1800817;78;21133;-73
2021/04/02 06:19:42;;;;;;;14.20;9.85;;;13.80;99.90;;;;;;1795679;79;21132;-73
2021/04/02 06:22:10;;;;;;;15.38;9.33;;;13.80;99.90;;;;;;1795625;80;21563;-76
2021/04/02 06:24:51;;;;;;;15.55;9.30;;;13.90;99.90;;;;;;1794323;80;21152;-75
2021/04/02 06:27:18;;;;;;;16.35;9.95;;;13.90;99.90;;;;;;1795461;80;21140;-76
2021/04/02 06:29:47;;;;;;;16.45;9.60;;;13.90;99.90;;;;;;1800295;78;21631;-75
2021/04/02 06:32:32;;;;;;;14.58;9.80;;;13.80;99.90;;;;;;1795483;80;21176;-76
2021/04/02 06:35:10;;;;;;;14.65;10.45;;;13.80;99.90;;;;;;1801738;78;21124;-74
2021/04/02 06:37:38;;;;;;;16.70;9.90;;;13.80;99.90;;;;;;1799478;78;21152;-74
2021/04/02 06:40:19;;;;;;;13.25;9.95;;;13.90;99.90;;;;;;1799814;78;21560;-79
2021/04/02 06:42:47;;;;;;;17.35;9.50;;;13.80;99.90;;;;;;1808431;78;21157;-76
2021/04/02 06:45:16;;;;;;;16.15;9.85;;;13.70;99.90;;;;;;1795353;80;21093;-77
2021/04/02 06:47:44;;;;;;;16.07;10.13;;;13.60;99.90;;;;;;1795333;79;21120;-77
2021/04/02 06:50:26;;;;;;;14.75;9.23;;;13.60;99.90;;;;;;1823916;78;21275;-78
2021/04/02 06:52:57;;;;;;;13.68;9.70;;;13.50;99.90;;;;;;1802368;78;21130;-75
2021/04/02 06:55:27;;;;;;;14.33;9.53;;;13.40;99.90;;;;;;1795318;80;21163;-77
2021/04/02 06:57:59;;;;;;;15.63;10.23;;;13.40;99.90;;;;;;1800091;78;21559;-76
2021/04/02 07:00:29;;;;;;;14.68;9.40;;;13.30;99.90;;;;;;1803549;78;21164;-77
2021/04/02 07:02:57;;;;;;;14.65;8.53;;;13.30;99.90;;;;;;1799028;78;21090;-78
2021/04/02 07:05:26;;;;;;;12.65;8.20;;;13.50;99.90;;;;;;1799391;78;21124;-74
2021/04/02 07:08:09;;;;;;;16.30;8.45;;;13.50;99.90;;;;;;1804307;78;21547;-76
2021/04/02 07:10:39;;;;;;;12.78;8.35;;;13.60;99.90;;;;;;1803533;78;21126;-77
2021/04/02 07:13:09;;;;;;;15.80;9.38;;;13.70;99.90;;;;;;1802134;78;21570;-78
2021/04/02 07:15:39;;;;;;;16.02;10.20;;;13.90;99.90;;;;;;1795836;80;21109;-76
2021/04/02 07:18:11;;;;;;;16.35;10.25;;;13.90;99.90;;;;;;1806129;78;21750;-76
2021/04/02 07:20:39;;;;;;;17.65;11.28;;;14.00;99.90;;;;;;1799961;78;21116;-76
2021/04/02 07:23:07;;;;;;;17.75;12.15;;;14.10;99.90;;;;;;1802162;78;21168;-69
2021/04/02 07:25:36;;;;;;;19.30;11.93;;;14.20;99.90;;;;;;1801423;79;21164;-74
2021/04/02 07:28:06;;;;;;;19.80;13.58;;;14.30;99.90;;;;;;1809594;78;21124;-74
2021/04/02 07:30:35;;;;;;;21.07;12.80;;;14.30;99.90;;;;;;1801671;78;21133;-76
2021/04/02 07:33:08;;;;;;;24.37;13.95;;;14.50;99.90;;;;;;1806202;78;21133;-78
2021/04/02 07:35:38;;;;;;;20.85;13.72;;;14.50;99.90;;;;;;1806688;78;21117;-77
2021/04/02 07:38:15;;;;;;;19.67;13.60;;;14.60;99.90;;;;;;1801061;78;21172;-75
2021/04/02 07:40:49;;;;;;;18.55;13.68;;;14.60;99.90;;;;;;1800324;78;21121;-79
2021/04/02 07:43:16;;;;;;;25.65;13.18;;;14.60;99.90;;;;;;1795676;80;21543;-75
2021/04/02 07:45:51;;;;;;;19.62;13.03;;;14.80;99.90;;;;;;1795619;78;21117;-74
2021/04/02 07:48:18;;;;;;;19.73;13.43;;;14.90;99.90;;;;;;1807307;78;21125;-73
2021/04/02 07:50:53;;;;;;;17.57;12.80;;;14.90;99.90;;;;;;1808370;78;21551;-76
2021/04/02 07:53:29;;;;;;;19.30;13.18;;;15.10;99.10;;;;;;1800201;78;21086;-75
2021/04/02 07:56:10;;;;;;;;;;;15.20;97.80;;;;;;1802840;78;21504;-73
2021/04/02 07:58:49;;;;;;;21.27;13.28;;;15.20;96.90;;;;;;1802988;78;20838;-75
2021/04/02 08:01:22;;;;;;;21.00;14.70;;;15.20;96.30;;;;;;1791506;79;21124;-76
2021/04/02 08:03:53;;;;;;;21.17;14.38;;;15.20;96.30;;;;;;1789242;79;21125;-77
2021/04/02 08:06:38;;;;;;;18.57;12.80;;;15.20;98.50;;;;;;1793609;79;21535;-79
2021/04/02 08:09:08;;;;;;;16.55;13.05;;;15.30;95.70;;;;;;1796980;79;21555;-76
2021/04/02 08:11:44;;;;;;;21.20;13.90;;;15.30;96.00;;;;;;1792928;79;21555;-75
2021/04/02 08:14:13;;;;;;;17.93;12.67;;;15.30;95.30;;;;;;1789801;79;21149;-75
2021/04/02 08:16:55;;;;;;;16.27;11.63;;;15.30;95.20;;;;;;1797273;79;21574;-74
2021/04/02 08:19:37;;;;;;;17.40;11.25;;;15.30;95.00;;;;;;1793986;79;21137;-75
2021/04/02 08:22:12;;;;;;;16.00;10.88;;;15.30;94.40;;;;;;1790261;79;21117;-73
2021/04/02 08:24:45;;;;;;;18.00;11.33;;;15.20;95.80;;;;;;1801077;79;21113;-75
2021/04/02 08:27:24;;;;;;;19.73;10.63;;;15.20;94.80;;;;;;1816776;77;23340;-75
2021/04/02 08:30:13;;;;;;;16.05;10.03;;;15.20;94.80;;;;;;1804512;78;21085;-75
2021/04/02 08:32:25;;;;;;;14.90;9.40;;;15.30;95.20;;;;;;1799609;78;21132;-76
2021/04/02 08:34:53;;;;;;;12.40;8.93;;;15.40;95.10;;;;;;1805872;78;21086;-80
2021/04/02 08:37:21;;;;;;;12.18;9.18;;;15.40;93.60;;;;;;1802358;78;21535;-80
2021/04/02 08:39:51;;;;;;;11.22;7.28;;;15.40;94.20;;;;;;1798133;80;21136;-80
2021/04/02 08:42:21;;;;;;;10.85;8.23;;;15.40;93.20;;;;;;1797584;80;21101;-77
2021/04/02 08:44:48;;;;;;;12.03;7.75;;;15.40;93.80;;;;;;1801208;78;21128;-75
2021/04/02 08:47:19;;;;;;;12.07;7.55;;;15.30;93.20;;;;;;1801165;78;21622;-78
2021/04/02 08:49:52;;;;;;;13.10;7.40;;;15.30;93.70;;;;;;1805184;78;21591;-77
2021/04/02 08:52:27;;;;;;;9.88;6.83;;;15.40;93.40;;;;;;1805570;78;21118;-75
2021/04/02 08:55:03;;;;;;;9.43;6.42;;;15.90;93.30;;;;;;1805945;78;21108;-76
2021/04/02 08:57:33;;;;;;;7.58;5.22;;;16.30;91.80;;;;;;1798239;80;21160;-71
2021/04/02 09:00:10;;;;;;;8.73;5.10;;;16.90;86.90;;;;;;1801528;78;21180;-69
2021/04/02 09:02:39;;;;;;;6.78;3.60;;;17.10;86.30;;;;;;1797635;80;21105;-69
2021/04/02 09:05:10;;;;;;;11.75;3.62;;;17.40;79.40;;;;;;1797783;80;21145;-73
2021/04/02 09:07:39;;;;;;;7.47;3.65;;;17.40;79.60;;;;;;1805007;78;21112;-72
2021/04/02 09:10:14;;;;;;;7.08;3.80;;;17.20;79.60;;;;;;1801500;78;21136;-71
2021/04/02 09:12:48;;;;;;;6.42;3.10;;;17.10;79.90;;;;;;1797734;78;21172;-70
2021/04/02 09:15:23;;;;;;;5.37;2.80;;;16.90;79.80;;;;;;1797115;79;21121;-68
2021/04/02 09:17:51;;;;;;;4.78;2.70;;;16.80;79.30;;;;;;1801717;78;21101;-69
2021/04/02 09:20:19;;;;;;;3.65;2.55;;;16.70;79.70;;;;;;1797971;80;21101;-70
2021/04/02 09:22:47;;;;;;;5.62;2.62;;;16.70;79.10;;;;;;1804893;78;21594;-68
2021/04/02 09:25:21;;;;;;;5.53;2.70;;;16.60;78.90;;;;;;1801755;78;21176;-67
2021/04/02 09:27:49;;;;;;;8.73;3.40;;;16.70;80.20;;;;;;1799009;79;21612;-70
2021/04/02 09:30:26;;;;;;;7.33;3.20;;;16.80;79.00;;;;;;1793497;79;21547;-70
2021/04/02 09:32:54;;;;;;;6.80;3.58;;;16.80;76.90;;;;;;1797772;79;21113;-68
2021/04/02 09:35:23;;;;;;;6.80;3.60;;;16.80;76.90;;;;;;1797430;79;21547;-72
2021/04/02 09:37:52;;;;;;;4.60;3.02;;;16.70;77.00;;;;;;1792812;79;21109;-70
2021/04/02 09:40:23;;;;;;;5.33;3.22;;;16.70;76.50;;;;;;1794337;79;21148;-69
2021/04/02 09:42:51;;;;;;;7.05;3.30;;;16.50;77.30;;;;;;1789637;79;21094;-70
2021/04/02 09:45:19;;;;;;;7.12;4.00;;;16.40;77.20;;;;;;1793756;79;21168;-68
2021/04/02 09:47:49;;;;;;;7.90;4.50;;;16.40;77.90;;;;;;1794927;79;21090;-69
2021/04/02 09:50:18;;;;;;;5.47;3.83;;;16.20;76.30;;;;;;1792997;79;21153;-66
2021/04/02 09:52:48;;;;;;;7.05;4.45;;;16.20;77.50;;;;;;1799000;79;21091;-70
2021/04/02 09:55:16;;;;;;;9.10;5.00;;;16.00;77.50;;;;;;1792776;79;21603;-68
2021/04/02 09:57:45;;;;;;;6.65;4.53;;;15.90;78.40;;;;;;1788468;80;21574;-69
2021/04/02 10:00:15;;;;;;;10.23;5.47;;;15.90;78.10;;;;;;1793900;79;21160;-68
2021/04/02 10:02:43;;;;;;;8.48;5.12;;;15.90;80.70;;;;;;1793187;79;21184;-71
2021/04/02 10:05:13;;;;;;;9.03;4.87;;;15.80;79.80;;;;;;1788916;80;21110;-69
2021/04/02 10:07:40;;;;;;;13.22;5.20;;;15.80;79.30;;;;;;1789760;80;21117;-74
2021/04/02 10:10:10;;;;;;;10.15;5.08;;;15.90;79.10;;;;;;1789130;80;21552;-68
2021/04/02 10:12:37;;;;;;;6.80;4.45;;;16.00;76.10;;;;;;1788690;79;21129;-70
2021/04/02 10:15:07;;;;;;;11.93;5.10;;;16.00;77.60;;;;;;1793868;79;21164;-70
2021/04/02 10:17:36;;;;;;;11.90;5.12;;;16.10;75.70;;;;;;1791508;79;21366;-69
2021/04/02 10:20:05;;;;;;;10.65;4.80;;;16.10;75.80;;;;;;1791294;79;21130;-71
2021/04/02 10:22:33;;;;;;;11.33;5.62;;;16.10;76.90;;;;;;1796446;79;21149;-70
2021/04/02 10:25:01;;;;;;;8.98;5.25;;;16.20;75.70;;;;;;1788783;80;21153;-69
2021/04/02 10:27:29;;;;;;;11.38;6.33;;;16.10;76.10;;;;;;1793968;80;21579;-70
2021/04/02 10:29:56;;;;;;;12.03;7.03;;;15.90;73.80;;;;;;1800041;78;21575;-70
2021/04/02 10:32:24;;;;;;;10.82;6.60;;;15.80;74.90;;;;;;1797195;78;21137;-71
2021/04/02 10:34:53;;;;;;;14.65;8.38;;;15.90;76.20;;;;;;1801806;78;21127;-70
2021/04/02 10:37:20;;;;;;;15.20;8.30;;;16.00;72.80;;;;;;1798378;78;21122;-69
2021/04/02 10:39:48;;;;;;;16.10;8.30;;;16.10;73.40;;;;;;1804475;78;21134;-69
2021/04/02 10:42:15;;;;;;;14.40;8.15;;;16.20;72.60;;;;;;1800189;78;21125;-69
2021/04/02 10:44:44;;;;;;;18.82;8.33;;;16.30;70.50;;;;;;1795574;80;21541;-70
2021/04/02 10:47:12;;;;;;;14.65;8.10;;;16.40;70.80;;;;;;1828260;78;21539;-67
2021/04/02 10:49:40;;;;;;;15.85;7.08;;;16.50;70.40;;;;;;1828725;78;21109;-68
2021/04/02 10:52:09;;;;;;;12.18;6.10;;;16.30;69.00;;;;;;1828617;78;21168;-68
2021/04/02 10:54:36;;;;;;;10.15;6.20;;;16.30;70.40;;;;;;1823128;78;21161;-70
2021/04/02 10:57:07;;;;;;;9.85;6.10;;;16.20;71.20;;;;;;1828373;78;21144;-71
2021/04/02 10:59:34;;;;;;;9.33;5.55;;;16.10;74.00;;;;;;1828554;78;21121;-71
2021/04/02 11:02:02;;;;;;;9.13;5.75;;;16.00;75.10;;;;;;1828487;78;21113;-70
2021/04/02 11:04:30;;;;;;;8.40;4.12;;;15.90;76.60;;;;;;1828347;78;21161;-72
2021/04/02 11:06:57;;;;;;;11.75;3.70;;;15.70;76.60;;;;;;1824734;78;21129;-70
2021/04/02 11:09:25;;;;;;;8.20;3.42;;;15.40;74.70;;;;;;1796242;80;21172;-68
2021/04/02 11:11:55;;;;;;;12.07;3.83;;;15.30;74.90;;;;;;1796180;80;21580;-71
2021/04/02 11:14:22;;;;;;;9.80;4.17;;;15.10;77.30;;;;;;1811073;78;21548;-70
2021/04/02 11:16:49;;;;;;;10.78;3.90;;;15.00;78.40;;;;;;1828640;78;21152;-69
2021/04/02 11:19:17;;;;;;;10.18;4.05;;;15.00;79.50;;;;;;1829156;78;21168;-68
2021/04/02 11:21:45;;;;;;;9.15;4.70;;;14.90;79.40;;;;;;1828506;78;21207;-69
2021/04/02 11:24:12;;;;;;;10.50;4.80;;;14.90;80.70;;;;;;1828583;78;21662;-69
2021/04/02 11:26:40;;;;;;;10.15;5.58;;;14.90;81.30;;;;;;1825280;78;21134;-69
2021/04/02 11:29:07;;;;;;;11.57;5.22;;;14.90;84.00;;;;;;1818965;79;21141;-68
2021/04/02 11:31:35;;;;;;;14.13;6.10;;;14.90;85.50;;;;;;1819243;79;21114;-68
2021/04/02 11:34:03;;;;;;;13.32;6.50;;;15.00;88.50;;;;;;1819413;79;21142;-68
2021/04/02 11:36:30;;;;;;;12.30;5.80;;;15.00;88.00;;;;;;1819215;79;21129;-68
2021/04/02 11:39:00;;;;;;;10.82;6.10;;;15.10;87.10;;;;;;1819044;79;21137;-68
2021/04/02 11:41:27;;;;;;;13.43;7.35;;;15.20;88.40;;;;;;1819242;79;21571;-68
2021/04/02 11:43:55;;;;;;;10.72;7.03;;;15.30;87.70;;;;;;1819242;79;21578;-70
2021/04/02 11:46:23;;;;;;;13.05;7.12;;;15.40;86.00;;;;;;1819143;79;21150;-69
2021/04/02 11:48:50;;;;;;;11.95;7.22;;;15.30;83.10;;;;;;1819043;78;21152;-69
2021/04/02 11:51:17;;;;;;;13.18;6.62;;;15.40;85.10;;;;;;1819503;79;21306;-68
2021/04/02 11:53:45;;;;;;;14.50;6.90;;;15.40;82.80;;;;;;1819003;79;21157;-69
2021/04/02 11:56:13;;;;;;;14.73;7.08;;;15.50;82.60;;;;;;1819142;79;21114;-69
2021/04/02 11:58:41;;;;;;;12.95;6.50;;;15.40;82.50;;;;;;1819048;79;21138;-70
2021/04/02 12:01:08;;;;;;;13.83;6.70;;;15.40;83.00;;;;;;1819405;78;21105;-70
2021/04/02 12:03:36;;;;;;;14.33;6.35;;;15.40;84.80;;;;;;1819023;79;21169;-71
2021/04/02 12:06:04;;;;;;;11.25;4.87;;;15.20;84.90;;;;;;1819121;79;21145;-71
2021/04/02 12:08:32;;;;;;;10.95;3.77;;;15.00;85.30;;;;;;1819512;79;21311;-70
2021/04/02 12:11:01;;;;;;;15.45;5.20;;;15.00;84.90;;;;;;1819650;79;21275;-68
2021/04/02 12:13:30;;;;;;;14.83;4.55;;;14.80;89.60;;;;;;1819596;79;21279;-68
2021/04/02 12:15:58;;;;;;;10.53;4.97;;;14.70;89.90;;;;;;1819116;79;21579;-71
2021/04/02 12:18:26;;;;;;;11.00;4.78;;;14.60;91.10;;;;;;1818969;79;21169;-70
2021/04/02 12:20:55;;;;;;;14.90;5.10;;;14.50;92.50;;;;;;1819632;79;21296;-69
2021/04/02 12:23:23;;;;;;;13.60;5.78;;;14.30;93.30;;;;;;1819290;79;21144;-69
2021/04/02 12:25:50;;;;;;;12.05;5.58;;;14.10;96.00;;;;;;1819012;79;21136;-69
2021/04/02 12:28:18;;;;;;;10.43;5.17;;;13.90;98.50;;;;;;1824063;79;21176;-69
2021/04/02 12:30:46;;;;;;;11.35;5.00;;;13.70;97.10;;;;;;1825476;79;21159;-69
2021/04/02 12:33:14;;;;;;;13.28;5.40;;;13.60;99.90;;;;;;1824762;79;21149;-69
2021/04/02 12:35:41;;;;;;;13.55;5.15;;;13.50;99.90;;;;;;1824899;79;21564;-69
2021/04/02 12:38:09;;;;;;;11.33;5.30;;;13.50;99.90;;;;;;1824812;79;21125;-70
2021/04/02 12:40:38;;;;;;;13.60;4.90;;;13.50;99.90;;;;;;1824876;79;21193;-69
2021/04/02 12:43:06;;;;;;;10.70;5.22;;;13.50;99.20;;;;;;1824932;79;21157;-69
2021/04/02 12:45:34;;;;;;;10.60;4.97;;;13.60;99.90;;;;;;1824882;79;21145;-69
2021/04/02 12:48:03;;;;;;;12.05;5.10;;;13.70;98.20;;;;;;1824950;79;21144;-69
2021/04/02 12:50:32;;;;;;;12.33;4.90;;;13.80;98.00;;;;;;1824773;79;21133;-69
2021/04/02 12:53:00;;;;;;;12.37;5.17;;;13.80;96.40;;;;;;1824891;79;21133;-68
2021/04/02 12:55:31;;;;;;;11.78;5.30;;;13.90;98.10;;;;;;1824249;79;21623;-70
2021/04/02 12:57:59;;;;;;;11.40;4.83;;;13.90;96.90;;;;;;1821449;79;21579;-71